Time;durP1;ratioP1;P1;durP2;ratioP2;P2;SDS_P1;SDS_P2;PMS_P1;PMS_P2;Temp;Humidity;BMP_temperature;BMP_pressure;BME280_temperature;BME280_humidity;BME280_pressure;Samples;Min_cycle;Max_cycle;Signal;HPM_P1;HPM_P2
2023/01/31 00:00:46;;;;;;;9.85;3.88;;;;;;;-1.36;100.00;93806.13;2097554;28;20491;-82
2023/01/31 00:01:47;;;;;;;9.55;4.18;;;;;;;-1.38;100.00;93804.91;2088944;28;20432;-83
2023/01/31 00:02:48;;;;;;;5.82;3.40;;;;;;;-1.44;100.00;93811.44;2086210;28;20158;-83
2023/01/31 00:03:56;;;;;;;6.68;3.58;;;;;;;-1.46;100.00;93809.13;2089043;28;20139;-84
2023/01/31 00:04:57;;;;;;;9.35;3.67;;;;;;;-1.45;100.00;93809.88;2098350;28;20506;-84
2023/01/31 00:06:16;;;;;;;6.68;3.88;;;;;;;-1.52;100.00;93805.19;2097473;28;20013;-83
2023/01/31 00:07:16;;;;;;;5.43;3.38;;;;;;;-1.60;100.00;93809.41;2103304;28;20440;-83
2023/01/31 00:08:18;;;;;;;8.95;3.30;;;;;;;-1.66;100.00;93802.84;2097365;28;20388;-83
2023/01/31 00:09:19;;;;;;;11.10;3.45;;;;;;;-1.66;100.00;93799.47;2097309;28;20108;-84
2023/01/31 00:10:20;;;;;;;7.85;3.22;;;;;;;-1.66;100.00;93802.84;2102739;28;20089;-83
2023/01/31 00:11:24;;;;;;;7.88;3.28;;;;;;;-1.71;100.00;93791.75;2112556;28;20031;-83
2023/01/31 00:12:27;;;;;;;6.38;3.45;;;;;;;-1.76;100.00;93797.97;2107329;28;20391;-83
2023/01/31 00:13:28;;;;;;;5.72;3.17;;;;;;;-1.80;100.00;93794.47;2111862;28;20051;-81
2023/01/31 00:14:29;;;;;;;8.88;3.22;;;;;;;-1.86;100.00;93791.28;2100766;28;20093;-82
2023/01/31 00:15:30;;;;;;;4.57;3.00;;;;;;;-1.85;100.00;93792.03;2095672;28;20123;-81
2023/01/31 00:16:31;;;;;;;6.20;3.25;;;;;;;-1.83;100.00;93800.34;2096553;28;20119;-84
2023/01/31 00:17:32;;;;;;;6.38;3.33;;;;;;;-1.82;100.00;93788.78;2105820;28;20494;-81
2023/01/31 00:18:37;;;;;;;10.00;3.42;;;;;;;-1.85;100.00;93794.66;2097627;28;20060;-82
2023/01/31 00:19:37;;;;;;;8.90;3.78;;;;;;;-1.92;100.00;93795.19;2090764;28;20118;-81
2023/01/31 00:20:38;;;;;;;8.60;3.83;;;;;;;-1.88;100.00;93795.31;2103653;28;20085;-82
2023/01/31 00:21:42;;;;;;;8.20;3.25;;;;;;;-1.90;100.00;93790.38;2103124;28;20403;-81
2023/01/31 00:22:49;;;;;;;6.10;3.35;;;;;;;-1.83;100.00;93795.13;2105572;28;20028;-84
2023/01/31 00:23:53;;;;;;;7.32;3.20;;;;;;;-1.79;100.00;93794.16;2103811;28;20020;-83
2023/01/31 00:24:54;;;;;;;10.82;3.60;;;;;;;-1.81;100.00;93787.69;2097672;28;20143;-84
2023/01/31 00:26:13;;;;;;;6.15;3.25;;;;;;;-1.80;100.00;93786.59;2093737;28;20028;-84
2023/01/31 00:27:14;;;;;;;11.45;3.63;;;;;;;-1.77;100.00;93785.97;2101287;28;20042;-83
2023/01/31 00:28:15;;;;;;;9.35;3.50;;;;;;;-1.79;100.00;93783.66;2102591;28;20023;-82
2023/01/31 00:29:16;;;;;;;8.75;3.45;;;;;;;-1.78;100.00;93792.28;2105131;28;20081;-81
2023/01/31 00:30:17;;;;;;;7.63;3.75;;;;;;;-1.76;100.00;93784.88;2105927;28;20020;-82
2023/01/31 00:31:19;;;;;;;7.45;3.67;;;;;;;-1.74;100.00;93784.56;2103810;28;20543;-83
2023/01/31 00:32:24;;;;;;;9.20;4.18;;;;;;;-1.50;100.00;93782.03;2103317;28;20114;-82
2023/01/31 00:33:25;;;;;;;12.48;4.00;;;;;;;-1.43;100.00;93781.50;2104797;28;20544;-84
2023/01/31 00:34:26;;;;;;;10.15;4.10;;;;;;;-1.41;100.00;93782.69;2089226;28;20024;-83
2023/01/31 00:35:27;;;;;;;6.78;3.40;;;;;;;-1.46;100.00;93776.91;2097479;28;20087;-82
2023/01/31 00:36:31;;;;;;;6.57;3.70;;;;;;;-1.47;100.00;93778.00;2096027;28;20107;-82
2023/01/31 00:37:34;;;;;;;11.57;4.00;;;;;;;-1.52;100.00;93779.72;2087802;28;20082;-82
2023/01/31 00:38:36;;;;;;;8.98;4.03;;;;;;;-1.43;100.00;93776.28;2099991;28;20051;-84
2023/01/31 00:39:37;;;;;;;6.18;3.28;;;;;;;-1.43;100.00;93776.28;2101067;28;20036;-82
2023/01/31 00:40:37;;;;;;;8.00;3.30;;;;;;;-1.36;100.00;93779.91;2091952;28;20550;-82
2023/01/31 00:41:38;;;;;;;8.25;3.40;;;;;;;-1.30;100.00;93775.97;2089711;28;20057;-81
2023/01/31 00:42:39;;;;;;;8.13;3.80;;;;;;;-1.31;100.00;93778.94;2093881;28;20039;-80
2023/01/31 00:43:42;;;;;;;9.13;3.65;;;;;;;-1.28;100.00;93783.50;2095123;28;20021;-84
2023/01/31 00:44:43;;;;;;;10.73;4.40;;;;;;;-1.33;100.00;93775.84;2105283;28;20375;-83
2023/01/31 00:45:44;;;;;;;8.85;3.78;;;;;;;-1.22;100.00;93782.22;2105489;28;20058;-83
2023/01/31 00:46:47;;;;;;;7.28;4.10;;;;;;;-1.21;100.00;93765.41;2097751;28;20082;-83
2023/01/31 00:47:54;;;;;;;12.95;3.95;;;;;;;-1.20;100.00;93772.16;2097385;28;20015;-83
2023/01/31 00:50:05;;;;;;;9.35;3.53;;;;;;;-1.15;100.00;93769.34;2054884;28;20042;-83
2023/01/31 00:51:06;;;;;;;11.20;4.05;;;;;;;-1.08;100.00;93774.06;2056488;28;20062;-83
2023/01/31 00:52:07;;;;;;;16.00;3.90;;;;;;;-1.09;100.00;93770.66;2049698;29;20030;-83
2023/01/31 00:53:08;;;;;;;8.13;3.72;;;;;;;-1.09;100.00;93772.53;2048470;29;20034;-83
2023/01/31 00:54:09;;;;;;;6.45;3.35;;;;;;;-1.12;100.00;93770.53;2055788;28;20418;-83
2023/01/31 00:55:10;;;;;;;10.65;3.90;;;;;;;-0.95;100.00;93769.59;2056893;28;20026;-84
2023/01/31 00:56:13;;;;;;;13.07;3.72;;;;;;;-1.01;100.00;93761.16;2056032;28;20027;-82
2023/01/31 00:57:14;;;;;;;8.57;3.47;;;;;;;-1.08;100.00;93768.81;2054492;28;20029;-83
2023/01/31 00:58:16;;;;;;;10.05;3.85;;;;;;;-1.00;100.00;93762.69;2055579;28;20387;-82
2023/01/31 00:59:17;;;;;;;10.27;4.35;;;;;;;-1.04;100.00;93756.56;2048264;28;20448;-84
2023/01/31 01:00:18;;;;;;;8.95;3.45;;;;;;;-1.02;100.00;93760.38;2048197;28;20038;-82
2023/01/31 01:01:22;;;;;;;13.00;3.63;;;;;;;-0.86;100.00;93762.38;2040147;29;20026;-80
2023/01/31 01:02:22;;;;;;;13.07;3.88;;;;;;;-0.90;100.00;93762.25;2054234;28;20019;-83
2023/01/31 01:03:24;;;;;;;15.50;4.15;;;;;;;-0.98;100.00;93752.63;2062406;28;20062;-82
2023/01/31 01:04:25;;;;;;;12.32;4.32;;;;;;;-0.97;100.00;93766.50;2056854;28;20384;-83
2023/01/31 01:05:26;;;;;;;8.15;3.47;;;;;;;-0.73;100.00;93763.16;2048100;28;20023;-81
2023/01/31 01:06:28;;;;;;;9.45;4.15;;;;;;;-0.88;100.00;93765.34;2042546;29;20062;-83
2023/01/31 01:07:29;;;;;;;16.90;5.45;;;;;;;-0.92;100.00;93753.97;2048095;28;20059;-82
2023/01/31 01:08:30;;;;;;;14.68;4.30;;;;;;;-0.87;100.00;93758.22;2049873;28;20023;-83
2023/01/31 01:09:31;;;;;;;13.63;4.35;;;;;;;-0.93;100.00;93759.53;2054268;28;20033;-81
2023/01/31 01:10:33;;;;;;;10.65;3.78;;;;;;;-0.61;100.00;93761.31;2050472;28;20030;-83
2023/01/31 01:11:37;;;;;;;11.10;4.30;;;;;;;-0.63;100.00;93749.59;2050042;28;20030;-84
2023/01/31 01:12:38;;;;;;;10.20;4.47;;;;;;;-0.84;100.00;93758.31;2046721;28;20031;-82
2023/01/31 01:13:40;;;;;;;15.95;4.25;;;;;;;-1.00;100.00;93752.22;2037934;29;20038;-81
2023/01/31 01:14:41;;;;;;;16.48;3.95;;;;;;;-1.10;100.00;93757.84;2032675;29;20461;-83
2023/01/31 01:15:42;;;;;;;12.30;3.47;;;;;;;-1.16;100.00;93754.69;2034008;29;20035;-84
2023/01/31 01:16:43;;;;;;;10.88;3.88;;;;;;;-1.23;100.00;93756.31;2032618;29;20024;-84
2023/01/31 01:17:44;;;;;;;11.30;4.15;;;;;;;-1.26;100.00;93757.75;2040234;29;20038;-81
2023/01/31 01:18:47;;;;;;;14.35;3.97;;;;;;;-1.32;100.00;93756.41;2039462;29;20471;-81
2023/01/31 01:19:48;;;;;;;11.98;3.90;;;;;;;-1.31;100.00;93753.47;2043533;28;20460;-81
2023/01/31 01:20:49;;;;;;;15.35;4.68;;;;;;;-1.29;100.00;93756.53;2050543;28;20043;-85
2023/01/31 01:21:53;;;;;;;7.15;3.60;;;;;;;-1.32;100.00;93765.06;2043572;28;20395;-83
2023/01/31 01:22:58;;;;;;;12.40;4.22;;;;;;;-1.12;100.00;93758.19;2047657;28;20179;-83
2023/01/31 01:24:02;;;;;;;7.82;3.47;;;;;;;-0.98;100.00;93757.88;2051268;28;20019;-82
2023/01/31 01:25:04;;;;;;;11.02;3.58;;;;;;;-0.99;100.00;93758.22;2050329;28;20244;-84
2023/01/31 01:26:12;;;;;;;8.25;3.60;;;;;;;-1.05;100.00;93755.81;2049454;28;20023;-83
2023/01/31 01:27:13;;;;;;;12.35;4.20;;;;;;;-0.94;100.00;93760.63;2047725;28;20514;-81
2023/01/31 01:28:14;;;;;;;10.57;3.30;;;;;;;-1.01;100.00;93766.41;2042471;29;20020;-82
2023/01/31 01:29:15;;;;;;;11.25;4.57;;;;;;;-1.10;100.00;93760.47;2048055;28;20498;-83
2023/01/31 01:30:17;;;;;;;9.27;3.63;;;;;;;-0.74;100.00;93759.00;2049517;28;20271;-83
2023/01/31 01:31:19;;;;;;;13.70;3.97;;;;;;;-0.91;100.00;93762.59;2046792;28;20106;-84
2023/01/31 01:32:23;;;;;;;12.73;3.88;;;;;;;-0.84;100.00;93762.81;2040219;29;20059;-83
2023/01/31 01:33:26;;;;;;;9.48;3.90;;;;;;;-0.97;100.00;93763.88;2032591;29;20035;-82
2023/01/31 01:34:30;;;;;;;12.57;3.97;;;;;;;-1.07;100.00;93763.22;2040570;28;20115;-81
2023/01/31 01:35:31;;;;;;;8.68;3.47;;;;;;;-1.06;100.00;93766.63;2047498;28;20074;-81
2023/01/31 01:36:35;;;;;;;8.93;3.65;;;;;;;-1.11;100.00;93761.59;2049644;28;20074;-84
2023/01/31 01:37:36;;;;;;;12.40;3.75;;;;;;;-1.14;100.00;93754.34;2048475;28;20123;-83
2023/01/31 01:38:37;;;;;;;11.15;4.20;;;;;;;-1.17;100.00;93750.53;2050573;28;20395;-81
2023/01/31 01:39:38;;;;;;;11.60;3.78;;;;;;;-1.15;100.00;93750.97;2052150;28;20125;-82
2023/01/31 01:40:39;;;;;;;10.02;3.63;;;;;;;-1.00;100.00;93754.84;2048564;28;20604;-83
2023/01/31 01:41:40;;;;;;;10.15;3.45;;;;;;;-0.96;100.00;93747.84;2048339;28;20118;-83
2023/01/31 01:42:41;;;;;;;12.73;3.65;;;;;;;-0.96;100.00;93745.22;2057454;28;20051;-82
2023/01/31 01:43:46;;;;;;;9.63;3.35;;;;;;;-0.89;100.00;93753.28;2048997;28;20506;-81
2023/01/31 01:45:04;;;;;;;11.90;4.00;;;;;;;-0.91;100.00;93749.47;2055719;28;20507;-81
2023/01/31 01:46:05;;;;;;;9.90;3.60;;;;;;;-1.03;100.00;93748.38;2064211;28;20490;-84
2023/01/31 01:47:20;;;;;;;8.77;3.50;;;;;;;-1.12;100.00;93749.56;2059891;28;20092;-82
2023/01/31 01:48:29;;;;;;;11.85;4.50;;;;;;;-1.08;100.00;93739.94;2052586;28;20030;-80
2023/01/31 01:49:35;;;;;;;11.82;3.88;;;;;;;-1.12;100.00;93742.47;2048542;28;20493;-83
2023/01/31 01:50:44;;;;;;;16.83;5.65;;;;;;;-1.03;100.00;93748.38;2047718;28;20103;-83
2023/01/31 01:51:50;;;;;;;11.82;4.07;;;;;;;-1.14;100.00;93747.28;2047299;28;20031;-83
2023/01/31 01:52:56;;;;;;;10.32;3.80;;;;;;;-1.21;100.00;93741.03;2047881;28;20058;-82
2023/01/31 01:54:04;;;;;;;15.10;4.30;;;;;;;-1.07;100.00;93736.22;2042205;29;20520;-84
2023/01/31 01:55:11;;;;;;;13.45;4.70;;;;;;;-1.11;100.00;93737.97;2041997;28;20027;-84
2023/01/31 01:56:22;;;;;;;19.85;6.32;;;;;;;-1.22;100.00;93735.03;2042855;29;20126;-82
2023/01/31 01:57:38;;;;;;;10.57;4.10;;;;;;;-1.29;100.00;93740.03;2048408;28;20481;-83
2023/01/31 01:58:43;;;;;;;10.52;4.05;;;;;;;-1.39;100.00;93735.97;2049536;28;20026;-81
2023/01/31 01:59:50;;;;;;;11.43;4.20;;;;;;;-1.43;100.00;93744.81;2040354;29;20164;-82
2023/01/31 02:00:52;;;;;;;14.57;4.10;;;;;;;-1.10;100.00;93735.03;2048836;28;20030;-81
2023/01/31 02:01:56;;;;;;;9.93;4.10;;;;;;;-1.26;100.00;93747.25;2052992;28;20034;-84
2023/01/31 02:03:00;;;;;;;11.23;3.80;;;;;;;-1.20;100.00;93738.06;2058566;28;20033;-82
2023/01/31 02:04:04;;;;;;;15.55;3.83;;;;;;;-1.25;100.00;93743.53;2061866;28;20473;-82
2023/01/31 02:05:05;;;;;;;9.20;3.72;;;;;;;-1.25;100.00;93735.66;2048058;28;20035;-81
2023/01/31 02:06:10;;;;;;;10.73;4.03;;;;;;;-1.34;100.00;93748.88;2040146;28;20023;-84
2023/01/31 02:07:11;;;;;;;8.68;4.03;;;;;;;-1.40;100.00;93759.91;2038609;29;20026;-84
2023/01/31 02:08:17;;;;;;;19.70;3.95;;;;;;;-1.44;100.00;93764.25;2047275;28;20134;-81
2023/01/31 02:09:31;;;;;;;8.88;4.00;;;;;;;-1.46;100.00;93759.31;2048305;28;20098;-82
2023/01/31 02:10:46;;;;;;;9.60;3.88;;;;;;;-1.49;100.00;93769.69;2045765;28;20058;-83
2023/01/31 02:11:47;;;;;;;8.90;4.22;;;;;;;-1.50;100.00;93761.06;2041931;29;20138;-84
2023/01/31 02:12:48;;;;;;;10.40;3.75;;;;;;;-1.50;100.00;93761.06;2040040;28;20075;-82
2023/01/31 02:13:59;;;;;;;13.95;4.10;;;;;;;-1.27;100.00;93758.84;2050218;28;20041;-83
2023/01/31 02:15:00;;;;;;;;;;;;;;;-1.29;100.00;93769.63;2044091;28;20472;-83
2023/01/31 02:16:00;;;;;;;9.38;3.70;;;;;;;-1.31;100.00;93763.97;2039641;29;19911;-84
2023/01/31 02:18:48;;;;;;;;;;;;;;;-1.29;100.00;93771.50;2135103;27;20190;-83
2023/01/31 02:20:07;;;;;;;7.07;3.70;;;;;;;-1.36;100.00;93763.38;2114177;28;19915;-84
2023/01/31 02:21:14;;;;;;;10.57;4.20;;;;;;;-1.17;100.00;93771.53;2114777;28;20055;-80
2023/01/31 02:22:25;;;;;;;8.82;4.07;;;;;;;-0.93;100.00;93765.53;2111643;28;20559;-84
2023/01/31 02:24:07;;;;;;;9.80;4.13;;;;;;;-1.10;100.00;93761.28;2111868;27;20019;-83
2023/01/31 02:25:22;;;;;;;6.13;3.15;;;;;;;-1.07;100.00;93772.94;2084237;28;20022;-82
2023/01/31 02:26:59;;;;;;;9.88;4.25;;;;;;;-1.19;100.00;93770.31;2120938;27;20055;-82
2023/01/31 02:28:11;;;;;;;10.18;3.75;;;;;;;-1.25;100.00;93771.63;2112566;28;20413;-84
2023/01/31 02:29:33;;;;;;;12.73;4.22;;;;;;;-1.38;100.00;93766.34;2107043;28;20020;-84
2023/01/31 02:31:17;;;;;;;11.80;3.65;;;;;;;-1.35;100.00;93762.31;2114718;27;20467;-82
2023/01/31 02:32:26;;;;;;;13.10;4.00;;;;;;;-1.37;100.00;93764.47;2122246;27;20012;-82
2023/01/31 02:33:47;;;;;;;11.63;4.15;;;;;;;-1.44;100.00;93770.25;2107315;28;20111;-83
2023/01/31 02:35:06;;;;;;;9.82;4.07;;;;;;;-1.54;100.00;93763.56;2110269;27;20032;-82
2023/01/31 02:36:39;;;;;;;8.68;4.43;;;;;;;-1.51;100.00;93762.16;2125130;27;20087;-82
2023/01/31 02:38:01;;;;;;;7.65;3.97;;;;;;;-1.64;100.00;93765.81;2111966;28;20035;-82
2023/01/31 02:39:24;;;;;;;16.58;4.63;;;;;;;-1.62;100.00;93767.03;2105331;28;20407;-82
2023/01/31 02:40:45;;;;;;;8.18;3.90;;;;;;;-1.66;100.00;93771.38;2104327;28;20032;-83
2023/01/31 02:42:22;;;;;;;10.05;3.88;;;;;;;-1.70;100.00;93760.00;2108996;28;20043;-83
2023/01/31 02:43:32;;;;;;;9.43;3.75;;;;;;;-1.78;100.00;93766.84;2077943;28;20056;-81
2023/01/31 02:44:59;;;;;;;13.15;4.75;;;;;;;-1.83;100.00;93753.97;2089550;28;20045;-81
2023/01/31 02:46:13;;;;;;;10.95;4.50;;;;;;;-1.61;100.00;93762.56;2108976;28;20042;-83
2023/01/31 02:47:22;;;;;;;9.43;4.00;;;;;;;-1.63;100.00;93765.47;2101510;28;20024;-83
2023/01/31 02:48:54;;;;;;;13.23;4.80;;;;;;;-1.73;100.00;93762.50;2112009;28;20038;-80
2023/01/31 02:50:02;;;;;;;8.82;3.95;;;;;;;-1.79;100.00;93756.72;2100246;28;20424;-82
2023/01/31 02:51:23;;;;;;;11.43;4.53;;;;;;;-1.90;100.00;93763.41;2090785;28;20036;-83
2023/01/31 02:53:02;;;;;;;13.45;4.82;;;;;;;-1.84;100.00;93767.38;2100458;28;20394;-82
2023/01/31 02:54:20;;;;;;;9.65;4.57;;;;;;;-1.82;100.00;93765.97;2070081;28;20017;-81
2023/01/31 02:56:54;;;;;;;5.03;3.78;;;;;;;-2.08;100.00;93775.88;2113384;28;20031;-81
2023/01/31 02:57:59;;;;;;;9.00;4.13;;;;;;;-2.08;100.00;93775.88;2110270;28;20438;-81
2023/01/31 02:59:30;;;;;;;12.82;4.35;;;;;;;-2.15;100.00;93768.53;2106364;28;20036;-81
2023/01/31 03:00:33;;;;;;;15.90;4.03;;;;;;;-2.18;100.00;93765.78;2109104;28;20027;-81
2023/01/31 03:01:43;;;;;;;9.82;4.40;;;;;;;-2.25;100.00;93768.91;2106639;28;20020;-81
2023/01/31 03:02:44;;;;;;;9.55;4.30;;;;;;;-2.32;100.00;93771.28;2108818;28;20047;-82
2023/01/31 03:03:45;;;;;;;13.35;4.40;;;;;;;-2.36;100.00;93773.00;2109513;28;20024;-82
2023/01/31 03:04:47;;;;;;;11.25;4.30;;;;;;;-2.33;100.00;93767.09;2103592;28;20169;-82
2023/01/31 03:06:25;;;;;;;9.20;4.28;;;;;;;-2.29;100.00;93762.78;2120266;27;20031;-82
2023/01/31 03:07:32;;;;;;;10.35;3.92;;;;;;;-2.37;100.00;93766.22;2110073;28;20024;-83
2023/01/31 03:08:33;;;;;;;10.00;4.40;;;;;;;-2.36;100.00;93768.53;2087422;28;20479;-82
2023/01/31 03:10:03;;;;;;;11.20;4.40;;;;;;;-2.33;100.00;93773.13;2094914;28;20062;-80
2023/01/31 03:11:08;;;;;;;8.52;3.88;;;;;;;-2.29;100.00;93784.47;2092305;28;20514;-83
2023/01/31 03:12:32;;;;;;;13.27;5.15;;;;;;;-2.24;100.00;93780.16;2090755;28;20128;-82
2023/01/31 03:13:56;;;;;;;10.75;4.45;;;;;;;-2.30;100.00;93779.56;2096248;28;20027;-83
2023/01/31 03:15:16;;;;;;;7.75;4.20;;;;;;;-2.31;100.00;93778.81;2107406;28;20437;-83
2023/01/31 03:18:00;;;;;;;10.70;4.50;;;;;;;-2.33;100.00;93790.66;2108089;28;20119;-81
2023/01/31 03:19:12;;;;;;;11.00;3.92;;;;;;;-2.30;100.00;93790.03;2104819;28;20052;-82
2023/01/31 03:20:28;;;;;;;11.18;4.38;;;;;;;-2.25;100.00;93783.84;2099989;28;20051;-82
2023/01/31 03:21:39;;;;;;;8.70;3.75;;;;;;;-2.20;100.00;93779.19;2100105;28;20028;-82
2023/01/31 03:22:55;;;;;;;8.40;4.00;;;;;;;-2.18;100.00;93787.50;2107990;28;20071;-82
2023/01/31 03:23:56;;;;;;;11.68;4.60;;;;;;;-2.18;100.00;93781.50;2106391;28;20036;-82
2023/01/31 03:24:59;;;;;;;9.20;4.00;;;;;;;-2.19;100.00;93782.59;2100419;28;20024;-82
2023/01/31 03:26:02;;;;;;;9.25;3.88;;;;;;;-2.28;100.00;93780.81;2104073;28;20077;-78
2023/01/31 03:27:04;;;;;;;8.02;3.80;;;;;;;-2.33;100.00;93783.59;2108896;28;20024;-82
2023/01/31 03:28:19;;;;;;;12.10;4.00;;;;;;;-2.08;100.00;93783.72;2106817;28;20024;-83
2023/01/31 03:29:22;;;;;;;8.38;3.97;;;;;;;-2.17;100.00;93780.41;2095285;28;20058;-83
2023/01/31 03:30:40;;;;;;;8.65;3.85;;;;;;;-2.20;100.00;93783.66;2083465;28;20028;-81
2023/01/31 03:31:59;;;;;;;11.20;4.10;;;;;;;-2.22;100.00;93781.38;2099842;28;20079;-81
2023/01/31 03:33:09;;;;;;;7.70;3.58;;;;;;;-2.11;100.00;93779.91;2106864;28;20032;-81
2023/01/31 03:34:12;;;;;;;11.60;4.32;;;;;;;-2.11;100.00;93779.91;2113439;28;20047;-81
2023/01/31 03:35:13;;;;;;;11.93;3.97;;;;;;;-2.12;100.00;93782.84;2099326;28;20404;-81
2023/01/31 03:36:35;;;;;;;11.98;4.10;;;;;;;-2.07;100.00;93780.03;2082481;28;20095;-82
2023/01/31 03:37:45;;;;;;;7.50;3.95;;;;;;;-2.20;100.00;93791.50;2095092;28;20081;-82
2023/01/31 03:39:15;;;;;;;8.65;5.13;;;;;;;-2.25;100.00;93783.84;2096223;28;20492;-80
2023/01/31 03:40:24;;;;;;;10.07;3.50;;;;;;;-2.21;100.00;93796.00;2102742;28;20103;-82
2023/01/31 03:41:39;;;;;;;9.35;4.10;;;;;;;-2.24;100.00;93788.75;2093098;28;20025;-82
2023/01/31 03:43:02;;;;;;;10.70;4.40;;;;;;;-2.21;100.00;93788.13;2089950;28;20044;-83
2023/01/31 03:44:10;;;;;;;9.52;4.28;;;;;;;-2.20;100.00;93788.91;2092302;28;20519;-82
2023/01/31 03:45:36;;;;;;;9.52;3.72;;;;;;;-2.16;100.00;93784.56;2102270;28;20363;-81
2023/01/31 03:46:43;;;;;;;10.27;4.13;;;;;;;-2.18;100.00;93789.38;2104488;28;20054;-82
2023/01/31 03:47:47;;;;;;;10.23;3.97;;;;;;;-2.15;100.00;93783.47;2089330;28;20032;-82
2023/01/31 03:48:52;;;;;;;7.30;4.05;;;;;;;-2.22;100.00;93788.47;2092329;28;20088;-82
2023/01/31 03:49:57;;;;;;;13.05;4.18;;;;;;;-2.22;100.00;93791.84;2097725;28;20115;-80
2023/01/31 03:51:05;;;;;;;11.00;4.15;;;;;;;-2.24;100.00;93796.63;2090201;28;20049;-80
2023/01/31 03:52:08;;;;;;;12.18;3.97;;;;;;;-2.20;100.00;93797.50;2092334;28;20056;-84
2023/01/31 03:53:21;;;;;;;8.68;3.58;;;;;;;-2.20;100.00;93792.28;2091897;28;20056;-82
2023/01/31 03:54:27;;;;;;;9.93;3.97;;;;;;;-2.14;100.00;93791.03;2088287;28;20032;-82
2023/01/31 03:55:42;;;;;;;12.77;5.32;;;;;;;-2.17;100.00;93793.50;2091766;28;20032;-82
2023/01/31 03:56:56;;;;;;;5.70;4.10;;;;;;;-2.11;100.00;93790.41;2094654;28;20075;-82
2023/01/31 03:58:00;;;;;;;13.02;4.20;;;;;;;-2.08;100.00;93792.34;2086155;28;20065;-83
2023/01/31 03:59:09;;;;;;;9.55;4.55;;;;;;;-2.04;100.00;93790.63;2087378;28;20028;-83
2023/01/31 04:00:14;;;;;;;12.23;4.05;;;;;;;-2.10;100.00;93789.31;2095138;28;20408;-82
2023/01/31 04:01:18;;;;;;;7.88;3.85;;;;;;;-2.05;100.00;93793.59;2093613;28;20028;-81
2023/01/31 04:02:29;;;;;;;11.00;4.28;;;;;;;-2.05;100.00;93791.72;2089975;28;20403;-83
2023/01/31 04:03:57;;;;;;;11.05;4.00;;;;;;;-2.08;100.00;93781.88;2093880;28;20028;-81
2023/01/31 04:05:06;;;;;;;9.35;4.00;;;;;;;-1.97;100.00;93779.66;2105503;28;20381;-83
2023/01/31 04:06:10;;;;;;;9.40;4.00;;;;;;;-1.86;100.00;93786.03;2101348;28;20158;-83
2023/01/31 04:07:11;;;;;;;8.13;3.78;;;;;;;-1.97;100.00;93779.66;2084979;28;20381;-83
2023/01/31 04:08:13;;;;;;;8.25;3.97;;;;;;;-2.00;100.00;93775.06;2090830;28;20033;-83
2023/01/31 04:09:16;;;;;;;11.88;4.70;;;;;;;-2.04;100.00;93774.91;2100515;28;20082;-83
2023/01/31 04:10:18;;;;;;;11.82;5.63;;;;;;;-1.97;100.00;93782.28;2097523;28;20054;-83
2023/01/31 04:11:24;;;;;;;14.43;5.72;;;;;;;-2.07;100.00;93780.03;2112020;28;20406;-83
2023/01/31 04:12:25;;;;;;;14.52;7.43;;;;;;;-2.10;100.00;93784.06;2098021;28;20270;-82
2023/01/31 04:13:26;;;;;;;11.20;5.03;;;;;;;-1.99;100.00;93783.69;2090882;28;20175;-83
2023/01/31 04:14:28;;;;;;;9.60;4.30;;;;;;;-1.90;100.00;93785.13;2101603;28;20518;-82
2023/01/31 04:15:29;;;;;;;8.73;4.10;;;;;;;-2.01;100.00;93780.63;2097251;28;20030;-84
2023/01/31 04:16:30;;;;;;;9.68;4.50;;;;;;;-2.06;100.00;93781.59;2094983;28;20025;-81
2023/01/31 04:17:32;;;;;;;10.40;4.20;;;;;;;-2.03;100.00;93784.31;2095684;28;20016;-82
2023/01/31 04:18:33;;;;;;;9.10;4.45;;;;;;;-1.97;100.00;93784.13;2091894;28;20019;-81
2023/01/31 04:19:33;;;;;;;14.77;4.93;;;;;;;-1.95;100.00;93789.81;2103494;28;20044;-82
2023/01/31 04:20:34;;;;;;;10.52;4.13;;;;;;;-1.98;100.00;93791.19;2102800;28;20016;-82
2023/01/31 04:21:38;;;;;;;12.93;5.05;;;;;;;-2.00;100.00;93790.00;2100287;28;20062;-83
2023/01/31 04:22:39;;;;;;;10.15;4.47;;;;;;;-2.07;100.00;93795.75;2110708;28;20024;-81
2023/01/31 04:23:41;;;;;;;12.35;4.78;;;;;;;-2.06;100.00;93787.59;2095547;28;20036;-83
2023/01/31 04:24:41;;;;;;;9.25;4.45;;;;;;;-2.08;100.00;93788.97;2085571;28;20006;-81
2023/01/31 04:25:42;;;;;;;12.50;4.60;;;;;;;-2.09;100.00;93787.44;2088068;28;20101;-82
2023/01/31 04:26:43;;;;;;;11.45;5.25;;;;;;;-2.15;100.00;93797.34;2106613;28;20016;-81
2023/01/31 04:27:46;;;;;;;10.90;5.28;;;;;;;-2.14;100.00;93793.63;2109171;28;20024;-81
2023/01/31 04:28:49;;;;;;;10.75;6.35;;;;;;;-2.20;100.00;93789.66;2108402;28;20062;-83
2023/01/31 04:29:50;;;;;;;10.48;5.90;;;;;;;-2.18;100.00;93794.59;2095858;28;20066;-81
2023/01/31 04:30:53;;;;;;;12.15;6.53;;;;;;;-2.21;100.00;93796.00;2087162;28;20451;-82
2023/01/31 04:31:54;;;;;;;15.15;8.70;;;;;;;-2.21;100.00;93796.00;2089277;28;20568;-80
2023/01/31 04:32:55;;;;;;;15.45;7.38;;;;;;;-2.15;100.00;93796.56;2100405;28;20174;-82
2023/01/31 04:33:56;;;;;;;15.07;10.27;;;;;;;-2.12;100.00;93793.31;2104969;28;20028;-83
2023/01/31 04:34:57;;;;;;;15.38;7.68;;;;;;;-2.14;100.00;93796.25;2093095;28;20024;-83
2023/01/31 04:35:58;;;;;;;13.88;6.18;;;;;;;-2.09;100.00;93795.31;2093822;28;20071;-81
2023/01/31 04:36:59;;;;;;;9.63;5.03;;;;;;;-2.09;100.00;93788.22;2092403;28;20549;-83
2023/01/31 04:38:02;;;;;;;13.35;5.68;;;;;;;-2.09;100.00;93793.44;2098520;28;20028;-85
2023/01/31 04:39:09;;;;;;;183.50;44.65;;;;;;;-2.13;100.00;93804.88;2095979;28;20032;-83
2023/01/31 04:40:13;;;;;;;412.90;87.85;;;;;;;-2.23;100.00;93800.78;2085862;28;20028;-84
2023/01/31 04:41:14;;;;;;;161.07;37.28;;;;;;;-2.09;100.00;93803.16;2081435;28;20022;-81
2023/01/31 04:42:14;;;;;;;117.55;27.17;;;;;;;-1.98;100.00;93799.06;2084259;28;20021;-82
2023/01/31 04:43:16;;;;;;;24.83;8.35;;;;;;;-1.98;100.00;93809.53;2081526;28;20068;-83
2023/01/31 04:44:17;;;;;;;23.48;6.60;;;;;;;-1.97;100.00;93807.72;2094022;28;20062;-83
2023/01/31 04:45:18;;;;;;;17.42;6.72;;;;;;;-1.97;100.00;93813.72;2098566;28;20135;-82
2023/01/31 04:46:18;;;;;;;22.10;6.15;;;;;;;-2.00;100.00;93808.34;2095272;28;20031;-82
2023/01/31 04:47:26;;;;;;;14.45;5.20;;;;;;;-1.87;100.00;93807.31;2084795;28;22051;-82
2023/01/31 04:48:26;;;;;;;16.75;5.53;;;;;;;-1.88;100.00;93803.16;2091938;28;20021;-84
2023/01/31 04:49:27;;;;;;;12.82;4.25;;;;;;;-1.89;100.00;93801.63;2094879;28;20075;-81
2023/01/31 04:50:29;;;;;;;10.93;4.65;;;;;;;-1.87;100.00;93802.09;2095073;28;20020;-83
2023/01/31 04:51:33;;;;;;;13.20;4.20;;;;;;;-1.82;100.00;93807.13;2083820;28;20465;-82
2023/01/31 04:52:34;;;;;;;10.70;3.92;;;;;;;-1.66;100.00;93797.59;2087353;28;20036;-82
2023/01/31 04:53:35;;;;;;;10.80;4.10;;;;;;;-1.71;100.00;93795.19;2088874;28;20029;-82
2023/01/31 04:54:36;;;;;;;10.52;4.70;;;;;;;-1.64;100.00;93811.13;2084073;28;20117;-82
2023/01/31 04:55:37;;;;;;;10.10;3.75;;;;;;;-1.71;100.00;93797.00;2096657;28;20087;-84
2023/01/31 04:56:41;;;;;;;16.42;4.63;;;;;;;-1.74;100.00;93806.28;2096539;28;20020;-84
2023/01/31 04:57:42;;;;;;;11.18;4.25;;;;;;;-1.74;100.00;93810.78;2101583;28;20467;-83
2023/01/31 04:58:43;;;;;;;11.40;4.20;;;;;;;-1.72;100.00;93813.81;2098122;28;20079;-83
2023/01/31 04:59:46;;;;;;;12.48;4.43;;;;;;;-1.45;100.00;93809.88;2095981;28;20017;-82
2023/01/31 05:00:55;;;;;;;10.73;4.07;;;;;;;-1.54;100.00;93808.13;2089251;28;20028;-85
2023/01/31 05:02:01;;;;;;;11.02;4.10;;;;;;;-1.39;100.00;93814.63;2099922;28;20530;-82
2023/01/31 05:03:02;;;;;;;11.95;4.13;;;;;;;-1.55;100.00;93806.59;2109383;28;20082;-82
2023/01/31 05:04:03;;;;;;;17.88;4.18;;;;;;;-1.60;100.00;93813.88;2097949;28;20044;-81
2023/01/31 05:05:05;;;;;;;13.23;4.13;;;;;;;-1.65;100.00;93809.59;2092745;28;20120;-82
2023/01/31 05:06:07;;;;;;;12.20;4.15;;;;;;;-1.59;100.00;93810.16;2092627;28;20556;-84
2023/01/31 05:07:08;;;;;;;8.75;3.78;;;;;;;-1.60;100.00;93806.03;2092331;28;20104;-82
2023/01/31 05:08:09;;;;;;;14.25;4.65;;;;;;;-1.64;100.00;93807.75;2080840;28;20024;-83
2023/01/31 05:09:11;;;;;;;12.52;4.32;;;;;;;-1.54;100.00;93804.72;2087857;28;20528;-82
2023/01/31 05:10:12;;;;;;;12.45;4.00;;;;;;;-1.48;100.00;93808.69;2097058;28;20472;-82
2023/01/31 05:11:13;;;;;;;12.55;4.28;;;;;;;-1.40;100.00;93801.84;2086911;28;20596;-82
2023/01/31 05:12:14;;;;;;;8.13;4.72;;;;;;;-1.45;100.00;93800.16;2087786;28;20024;-82
2023/01/31 05:13:15;;;;;;;13.30;5.00;;;;;;;-1.41;100.00;93800.28;2088570;28;20040;-82